sensor_id;sensor_type;location;lat;lon;timestamp;pressure;altitude;pressure_sealevel;temperature;humidity
51227;BME280;42714;48.260;10.980;2023-08-20T00:02:47;973.7;;;24.6;100.0
51227;BME280;42714;48.260;10.980;2023-08-20T00:07:48;973.7;;;24.5;100.0
51227;BME280;42714;48.260;10.980;2023-08-20T00:12:49;973.6;;;24.4;100.0
51227;BME280;42714;48.260;10.980;2023-08-20T00:17:50;973.6;;;24.3;100.0
51227;BME280;42714;48.260;10.980;2023-08-20T00:22:51;973.6;;;24.1;100.0
51227;BME280;42714;48.260;10.980;2023-08-20T00:27:52;973.6;;;23.9;100.0
51227;BME280;42714;48.260;10.980;2023-08-20T00:32:53;973.6;;;23.8;100.0
51227;BME280;42714;48.260;10.980;2023-08-20T00:37:54;973.6;;;23.6;100.0
51227;BME280;42714;48.260;10.980;2023-08-20T00:42:55;973.6;;;23.5;100.0
51227;BME280;42714;48.260;10.980;2023-08-20T00:47:56;973.7;;;23.3;100.0
51227;BME280;42714;48.260;10.980;2023-08-20T00:52:57;973.7;;;23.1;100.0
51227;BME280;42714;48.260;10.980;2023-08-20T00:57:58;973.7;;;23.0;100.0
51227;BME280;42714;48.260;10.980;2023-08-20T01:02:59;973.7;;;22.8;100.0
51227;BME280;42714;48.260;10.980;2023-08-20T01:08:04;973.7;;;22.7;100.0
51227;BME280;42714;48.260;10.980;2023-08-20T01:13:01;973.7;;;22.4;100.0
51227;BME280;42714;48.260;10.980;2023-08-20T01:18:02;973.8;;;22.3;100.0
51227;BME280;42714;48.260;10.980;2023-08-20T01:23:09;973.8;;;22.3;100.0
51227;BME280;42714;48.260;10.980;2023-08-20T01:33:05;973.9;;;22.1;100.0
51227;BME280;42714;48.260;10.980;2023-08-20T01:38:06;974.0;;;22.0;100.0
51227;BME280;42714;48.260;10.980;2023-08-20T01:43:07;974.0;;;22.0;100.0
51227;BME280;42714;48.260;10.980;2023-08-20T01:48:08;974.0;;;21.9;100.0
51227;BME280;42714;48.260;10.980;2023-08-20T01:53:09;974.0;;;21.9;100.0
51227;BME280;42714;48.260;10.980;2023-08-20T01:58:10;974.0;;;21.7;100.0
51227;BME280;42714;48.260;10.980;2023-08-20T02:03:11;974.0;;;21.6;100.0
51227;BME280;42714;48.260;10.980;2023-08-20T02:08:12;974.0;;;21.6;100.0
51227;BME280;42714;48.260;10.980;2023-08-20T02:13:13;974.1;;;21.4;100.0
51227;BME280;42714;48.260;10.980;2023-08-20T02:18:14;974.2;;;21.4;100.0
51227;BME280;42714;48.260;10.980;2023-08-20T02:23:15;974.1;;;21.3;100.0
51227;BME280;42714;48.260;10.980;2023-08-20T02:28:16;974.1;;;21.1;100.0
51227;BME280;42714;48.260;10.980;2023-08-20T02:33:17;974.1;;;21.0;100.0
51227;BME280;42714;48.260;10.980;2023-08-20T02:38:18;974.1;;;21.0;100.0
51227;BME280;42714;48.260;10.980;2023-08-20T02:43:19;974.2;;;20.9;100.0
51227;BME280;42714;48.260;10.980;2023-08-20T02:48:20;974.2;;;20.9;100.0
51227;BME280;42714;48.260;10.980;2023-08-20T02:53:21;974.3;;;20.6;100.0
51227;BME280;42714;48.260;10.980;2023-08-20T02:58:22;974.3;;;20.5;100.0
51227;BME280;42714;48.260;10.980;2023-08-20T03:03:23;974.2;;;20.6;100.0
51227;BME280;42714;48.260;10.980;2023-08-20T03:08:24;974.2;;;20.5;100.0
51227;BME280;42714;48.260;10.980;2023-08-20T03:13:25;974.2;;;20.5;100.0
51227;BME280;42714;48.260;10.980;2023-08-20T03:18:26;974.3;;;20.5;100.0
51227;BME280;42714;48.260;10.980;2023-08-20T03:23:27;974.3;;;20.3;100.0
51227;BME280;42714;48.260;10.980;2023-08-20T03:28:28;974.3;;;20.2;100.0
51227;BME280;42714;48.260;10.980;2023-08-20T03:33:29;974.3;;;20.1;100.0
51227;BME280;42714;48.260;10.980;2023-08-20T03:38:30;974.3;;;20.0;100.0
51227;BME280;42714;48.260;10.980;2023-08-20T03:43:31;974.4;;;19.9;100.0
51227;BME280;42714;48.260;10.980;2023-08-20T03:48:32;974.4;;;19.9;100.0
51227;BME280;42714;48.260;10.980;2023-08-20T03:53:33;974.4;;;19.8;100.0
51227;BME280;42714;48.260;10.980;2023-08-20T03:58:34;974.4;;;19.6;100.0
51227;BME280;42714;48.260;10.980;2023-08-20T04:03:35;974.4;;;19.6;100.0
51227;BME280;42714;48.260;10.980;2023-08-20T04:08:36;974.4;;;19.5;100.0
51227;BME280;42714;48.260;10.980;2023-08-20T04:13:37;974.4;;;19.4;100.0
51227;BME280;42714;48.260;10.980;2023-08-20T04:18:38;974.4;;;19.3;100.0
51227;BME280;42714;48.260;10.980;2023-08-20T04:23:39;974.5;;;19.3;100.0
51227;BME280;42714;48.260;10.980;2023-08-20T04:28:40;974.5;;;19.3;100.0
51227;BME280;42714;48.260;10.980;2023-08-20T04:33:41;974.5;;;19.2;100.0
51227;BME280;42714;48.260;10.980;2023-08-20T04:38:42;974.6;;;19.2;100.0
51227;BME280;42714;48.260;10.980;2023-08-20T04:43:43;974.6;;;19.2;100.0
51227;BME280;42714;48.260;10.980;2023-08-20T04:48:44;974.6;;;19.4;100.0
51227;BME280;42714;48.260;10.980;2023-08-20T04:53:45;974.5;;;19.5;100.0
51227;BME280;42714;48.260;10.980;2023-08-20T04:58:46;974.5;;;19.7;100.0
51227;BME280;42714;48.260;10.980;2023-08-20T05:03:47;974.5;;;19.9;100.0
51227;BME280;42714;48.260;10.980;2023-08-20T05:08:48;974.5;;;19.9;100.0
51227;BME280;42714;48.260;10.980;2023-08-20T05:13:49;974.5;;;20.1;100.0
51227;BME280;42714;48.260;10.980;2023-08-20T05:18:50;974.5;;;20.8;100.0
51227;BME280;42714;48.260;10.980;2023-08-20T05:23:51;974.5;;;21.8;100.0
51227;BME280;42714;48.260;10.980;2023-08-20T05:28:52;974.5;;;22.9;100.0
51227;BME280;42714;48.260;10.980;2023-08-20T05:33:53;974.6;;;23.9;100.0
51227;BME280;42714;48.260;10.980;2023-08-20T05:38:54;974.6;;;24.1;100.0
51227;BME280;42714;48.260;10.980;2023-08-20T05:43:55;974.7;;;24.9;100.0
51227;BME280;42714;48.260;10.980;2023-08-20T05:48:56;974.6;;;25.8;100.0
51227;BME280;42714;48.260;10.980;2023-08-20T05:53:57;974.5;;;26.5;100.0
51227;BME280;42714;48.260;10.980;2023-08-20T05:58:58;974.5;;;27.3;100.0
51227;BME280;42714;48.260;10.980;2023-08-20T06:03:59;974.5;;;28.3;100.0
51227;BME280;42714;48.260;10.980;2023-08-20T06:09:00;974.5;;;29.2;94.9
51227;BME280;42714;48.260;10.980;2023-08-20T06:14:01;974.5;;;30.1;87.6
51227;BME280;42714;48.260;10.980;2023-08-20T06:19:02;974.5;;;30.9;76.3
51227;BME280;42714;48.260;10.980;2023-08-20T06:24:04;974.6;;;31.3;72.5
51227;BME280;42714;48.260;10.980;2023-08-20T06:29:04;974.7;;;31.8;67.5
51227;BME280;42714;48.260;10.980;2023-08-20T06:34:05;974.7;;;32.4;59.1
51227;BME280;42714;48.260;10.980;2023-08-20T06:39:06;974.7;;;32.9;59.0
51227;BME280;42714;48.260;10.980;2023-08-20T06:44:07;974.7;;;33.2;53.3
51227;BME280;42714;48.260;10.980;2023-08-20T06:49:08;974.7;;;34.0;46.9
51227;BME280;42714;48.260;10.980;2023-08-20T06:54:09;974.7;;;34.5;43.1
51227;BME280;42714;48.260;10.980;2023-08-20T06:59:10;974.7;;;35.2;40.8
51227;BME280;42714;48.260;10.980;2023-08-20T07:04:11;974.8;;;35.6;41.2
51227;BME280;42714;48.260;10.980;2023-08-20T07:09:12;974.9;;;35.9;38.9
51227;BME280;42714;48.260;10.980;2023-08-20T07:14:14;974.9;;;36.3;38.0
51227;BME280;42714;48.260;10.980;2023-08-20T07:19:14;974.8;;;36.7;37.3
51227;BME280;42714;48.260;10.980;2023-08-20T07:24:15;974.9;;;36.3;39.3
51227;BME280;42714;48.260;10.980;2023-08-20T07:29:16;974.9;;;37.0;37.1
51227;BME280;42714;48.260;10.980;2023-08-20T07:34:17;974.8;;;37.6;35.1
51227;BME280;42714;48.260;10.980;2023-08-20T07:39:18;974.8;;;38.6;31.7
51227;BME280;42714;48.260;10.980;2023-08-20T07:44:19;974.8;;;39.3;30.7
51227;BME280;42714;48.260;10.980;2023-08-20T07:49:20;974.8;;;39.3;31.5
51227;BME280;42714;48.260;10.980;2023-08-20T07:54:21;974.7;;;39.5;31.2
51227;BME280;42714;48.260;10.980;2023-08-20T07:59:22;974.7;;;39.7;30.7
51227;BME280;42714;48.260;10.980;2023-08-20T08:04:23;974.8;;;39.5;30.6
51227;BME280;42714;48.260;10.980;2023-08-20T08:09:28;974.8;;;39.5;31.2
51227;BME280;42714;48.260;10.980;2023-08-20T08:14:25;974.9;;;39.5;31.4
51227;BME280;42714;48.260;10.980;2023-08-20T08:19:26;974.9;;;40.6;28.5
51227;BME280;42714;48.260;10.980;2023-08-20T08:24:27;975.0;;;40.9;27.8
51227;BME280;42714;48.260;10.980;2023-08-20T08:29:28;975.0;;;41.4;26.6
51227;BME280;42714;48.260;10.980;2023-08-20T08:34:29;975.0;;;41.9;26.4
51227;BME280;42714;48.260;10.980;2023-08-20T08:39:30;975.1;;;42.2;25.8
51227;BME280;42714;48.260;10.980;2023-08-20T08:44:31;975.1;;;42.2;25.9
51227;BME280;42714;48.260;10.980;2023-08-20T08:49:33;975.1;;;42.9;25.1
51227;BME280;42714;48.260;10.980;2023-08-20T08:54:33;975.2;;;43.5;24.5
51227;BME280;42714;48.260;10.980;2023-08-20T08:59:34;975.1;;;43.8;24.2
51227;BME280;42714;48.260;10.980;2023-08-20T09:09:36;975.1;;;43.2;24.0
51227;BME280;42714;48.260;10.980;2023-08-20T09:14:37;975.1;;;43.5;22.4
51227;BME280;42714;48.260;10.980;2023-08-20T09:19:38;975.1;;;44.4;21.5
51227;BME280;42714;48.260;10.980;2023-08-20T09:24:40;975.1;;;44.7;19.5
51227;BME280;42714;48.260;10.980;2023-08-20T09:34:41;975.1;;;44.4;20.8
51227;BME280;42714;48.260;10.980;2023-08-20T09:39:42;975.1;;;44.7;20.5
51227;BME280;42714;48.260;10.980;2023-08-20T09:44:44;975.0;;;44.6;20.5
51227;BME280;42714;48.260;10.980;2023-08-20T09:49:45;975.0;;;44.7;20.5
51227;BME280;42714;48.260;10.980;2023-08-20T09:59:46;974.9;;;45.5;19.2
51227;BME280;42714;48.260;10.980;2023-08-20T10:04:47;974.9;;;45.2;18.9
51227;BME280;42714;48.260;10.980;2023-08-20T10:09:48;974.9;;;44.7;19.3
51227;BME280;42714;48.260;10.980;2023-08-20T10:14:49;974.9;;;44.7;19.1
51227;BME280;42714;48.260;10.980;2023-08-20T10:19:51;974.8;;;44.4;19.7
51227;BME280;42714;48.260;10.980;2023-08-20T10:24:52;974.8;;;44.1;20.4
51227;BME280;42714;48.260;10.980;2023-08-20T10:29:53;974.9;;;44.7;20.5
51227;BME280;42714;48.260;10.980;2023-08-20T10:34:54;974.8;;;44.5;21.7
51227;BME280;42714;48.260;10.980;2023-08-20T10:39:55;974.8;;;45.3;19.5
51227;BME280;42714;48.260;10.980;2023-08-20T10:44:56;974.9;;;44.9;19.9
51227;BME280;42714;48.260;10.980;2023-08-20T10:49:56;974.9;;;45.0;19.3
51227;BME280;42714;48.260;10.980;2023-08-20T10:54:57;974.9;;;45.6;18.8
51227;BME280;42714;48.260;10.980;2023-08-20T10:59:58;974.8;;;45.2;18.9
51227;BME280;42714;48.260;10.980;2023-08-20T11:04:59;974.8;;;46.2;18.5
51227;BME280;42714;48.260;10.980;2023-08-20T11:10:00;974.8;;;45.5;18.5
51227;BME280;42714;48.260;10.980;2023-08-20T11:15:01;974.7;;;46.6;17.4
51227;BME280;42714;48.260;10.980;2023-08-20T11:20:03;974.7;;;46.8;17.6
51227;BME280;42714;48.260;10.980;2023-08-20T11:25:04;974.7;;;46.5;18.5
51227;BME280;42714;48.260;10.980;2023-08-20T11:35:06;974.6;;;47.0;18.2
51227;BME280;42714;48.260;10.980;2023-08-20T11:40:07;974.6;;;47.3;17.8
51227;BME280;42714;48.260;10.980;2023-08-20T11:50:09;974.6;;;45.7;17.9
51227;BME280;42714;48.260;10.980;2023-08-20T11:55:10;974.6;;;45.8;17.4
51227;BME280;42714;48.260;10.980;2023-08-20T12:05:12;974.5;;;46.1;17.7
51227;BME280;42714;48.260;10.980;2023-08-20T12:10:22;974.5;;;45.8;17.8
51227;BME280;42714;48.260;10.980;2023-08-20T12:15:14;974.4;;;45.9;18.1
51227;BME280;42714;48.260;10.980;2023-08-20T12:20:15;974.4;;;46.9;17.1
51227;BME280;42714;48.260;10.980;2023-08-20T12:25:16;974.3;;;47.0;16.9
51227;BME280;42714;48.260;10.980;2023-08-20T12:30:17;974.3;;;47.0;16.9
51227;BME280;42714;48.260;10.980;2023-08-20T12:35:18;974.2;;;46.5;17.1
51227;BME280;42714;48.260;10.980;2023-08-20T12:40:19;974.3;;;45.9;17.0
51227;BME280;42714;48.260;10.980;2023-08-20T12:45:20;974.2;;;46.2;16.7
51227;BME280;42714;48.260;10.980;2023-08-20T12:50:21;974.1;;;46.6;17.0
51227;BME280;42714;48.260;10.980;2023-08-20T12:55:22;974.1;;;46.3;17.4
51227;BME280;42714;48.260;10.980;2023-08-20T13:00:23;974.1;;;46.5;17.5
51227;BME280;42714;48.260;10.980;2023-08-20T13:05:24;974.1;;;46.0;17.4
51227;BME280;42714;48.260;10.980;2023-08-20T13:10:25;974.0;;;45.8;18.0
51227;BME280;42714;48.260;10.980;2023-08-20T13:15:26;974.0;;;46.0;17.5
51227;BME280;42714;48.260;10.980;2023-08-20T13:20:27;974.0;;;45.9;17.0
51227;BME280;42714;48.260;10.980;2023-08-20T13:25:28;974.0;;;45.3;17.6
51227;BME280;42714;48.260;10.980;2023-08-20T13:30:29;974.0;;;44.9;17.8
51227;BME280;42714;48.260;10.980;2023-08-20T13:35:30;973.9;;;44.8;18.1
51227;BME280;42714;48.260;10.980;2023-08-20T13:40:31;973.9;;;44.6;18.4
51227;BME280;42714;48.260;10.980;2023-08-20T13:45:32;973.9;;;44.3;18.3
51227;BME280;42714;48.260;10.980;2023-08-20T13:50:33;973.9;;;44.2;18.5
51227;BME280;42714;48.260;10.980;2023-08-20T13:55:34;973.8;;;43.8;18.8
51227;BME280;42714;48.260;10.980;2023-08-20T14:00:35;973.8;;;43.3;19.0
51227;BME280;42714;48.260;10.980;2023-08-20T14:05:36;973.8;;;42.7;19.9
51227;BME280;42714;48.260;10.980;2023-08-20T14:10:37;973.7;;;42.3;20.5
51227;BME280;42714;48.260;10.980;2023-08-20T14:15:38;973.7;;;42.3;19.4
51227;BME280;42714;48.260;10.980;2023-08-20T14:20:39;973.7;;;42.1;20.6
51227;BME280;42714;48.260;10.980;2023-08-20T14:25:40;973.7;;;41.7;20.6
51227;BME280;42714;48.260;10.980;2023-08-20T14:30:41;973.7;;;42.0;20.1
51227;BME280;42714;48.260;10.980;2023-08-20T14:35:42;973.6;;;42.8;20.5
51227;BME280;42714;48.260;10.980;2023-08-20T14:40:43;973.6;;;42.9;19.2
51227;BME280;42714;48.260;10.980;2023-08-20T14:45:44;973.6;;;43.2;18.8
51227;BME280;42714;48.260;10.980;2023-08-20T14:50:45;973.6;;;42.8;19.8
51227;BME280;42714;48.260;10.980;2023-08-20T14:55:46;973.5;;;42.5;19.8
51227;BME280;42714;48.260;10.980;2023-08-20T15:00:48;973.5;;;42.5;20.2
51227;BME280;42714;48.260;10.980;2023-08-20T15:05:48;973.5;;;42.3;20.3
51227;BME280;42714;48.260;10.980;2023-08-20T15:10:58;973.5;;;41.4;21.1
51227;BME280;42714;48.260;10.980;2023-08-20T15:15:51;973.5;;;40.3;21.9
51227;BME280;42714;48.260;10.980;2023-08-20T15:25:52;973.5;;;37.8;24.7
51227;BME280;42714;48.260;10.980;2023-08-20T15:30:53;973.5;;;37.2;25.6
51227;BME280;42714;48.260;10.980;2023-08-20T15:35:54;973.5;;;36.5;27.6
51227;BME280;42714;48.260;10.980;2023-08-20T15:40:55;973.6;;;35.8;27.9
51227;BME280;42714;48.260;10.980;2023-08-20T15:45:56;973.6;;;35.2;28.5
51227;BME280;42714;48.260;10.980;2023-08-20T15:50:57;973.6;;;35.0;28.9
51227;BME280;42714;48.260;10.980;2023-08-20T15:55:58;973.5;;;34.8;29.0
51227;BME280;42714;48.260;10.980;2023-08-20T16:00:59;973.5;;;34.6;29.2
51227;BME280;42714;48.260;10.980;2023-08-20T16:06:00;973.5;;;34.5;29.4
51227;BME280;42714;48.260;10.980;2023-08-20T16:11:01;973.5;;;34.3;30.7
51227;BME280;42714;48.260;10.980;2023-08-20T16:16:02;973.5;;;34.3;30.6
51227;BME280;42714;48.260;10.980;2023-08-20T16:21:03;973.5;;;34.2;30.7
51227;BME280;42714;48.260;10.980;2023-08-20T16:26:04;973.5;;;34.1;31.9
51227;BME280;42714;48.260;10.980;2023-08-20T16:31:05;973.5;;;33.8;32.3
51227;BME280;42714;48.260;10.980;2023-08-20T16:36:06;973.5;;;33.8;32.1
51227;BME280;42714;48.260;10.980;2023-08-20T16:41:07;973.5;;;33.7;33.0
51227;BME280;42714;48.260;10.980;2023-08-20T16:46:08;973.5;;;33.7;33.9
51227;BME280;42714;48.260;10.980;2023-08-20T16:51:09;973.5;;;33.4;34.3
51227;BME280;42714;48.260;10.980;2023-08-20T16:56:10;973.6;;;33.3;35.3
51227;BME280;42714;48.260;10.980;2023-08-20T17:01:11;973.5;;;33.2;35.1
51227;BME280;42714;48.260;10.980;2023-08-20T17:06:12;973.6;;;33.0;36.9
51227;BME280;42714;48.260;10.980;2023-08-20T17:11:13;973.6;;;32.8;37.8
51227;BME280;42714;48.260;10.980;2023-08-20T17:16:14;973.6;;;32.6;38.1
51227;BME280;42714;48.260;10.980;2023-08-20T17:21:15;973.6;;;32.5;38.2
51227;BME280;42714;48.260;10.980;2023-08-20T17:26:16;973.6;;;32.3;40.2
51227;BME280;42714;48.260;10.980;2023-08-20T17:31:17;973.7;;;32.2;40.7
51227;BME280;42714;48.260;10.980;2023-08-20T17:36:18;973.7;;;31.9;42.0
51227;BME280;42714;48.260;10.980;2023-08-20T17:41:19;973.7;;;31.7;44.0
51227;BME280;42714;48.260;10.980;2023-08-20T17:46:20;973.7;;;31.6;45.7
51227;BME280;42714;48.260;10.980;2023-08-20T17:51:21;973.7;;;31.3;49.1
51227;BME280;42714;48.260;10.980;2023-08-20T17:56:22;973.8;;;31.0;51.9
51227;BME280;42714;48.260;10.980;2023-08-20T18:01:23;973.9;;;30.8;54.1
51227;BME280;42714;48.260;10.980;2023-08-20T18:06:24;973.9;;;30.6;57.6
51227;BME280;42714;48.260;10.980;2023-08-20T18:11:25;974.0;;;30.3;60.8
51227;BME280;42714;48.260;10.980;2023-08-20T18:16:26;973.9;;;30.0;63.7
51227;BME280;42714;48.260;10.980;2023-08-20T18:21:27;974.0;;;29.8;63.1
51227;BME280;42714;48.260;10.980;2023-08-20T18:26:28;974.1;;;29.6;65.7
51227;BME280;42714;48.260;10.980;2023-08-20T18:31:29;974.1;;;29.5;66.2
51227;BME280;42714;48.260;10.980;2023-08-20T18:36:30;974.2;;;29.3;69.1
51227;BME280;42714;48.260;10.980;2023-08-20T18:41:31;974.2;;;29.1;71.4
51227;BME280;42714;48.260;10.980;2023-08-20T18:46:32;974.3;;;29.0;74.3
51227;BME280;42714;48.260;10.980;2023-08-20T18:51:33;974.4;;;28.9;75.1
51227;BME280;42714;48.260;10.980;2023-08-20T18:56:34;974.5;;;28.8;74.7
51227;BME280;42714;48.260;10.980;2023-08-20T19:01:35;974.5;;;28.6;78.2
51227;BME280;42714;48.260;10.980;2023-08-20T19:06:36;974.6;;;28.4;82.6
51227;BME280;42714;48.260;10.980;2023-08-20T19:11:37;974.7;;;28.2;87.6
51227;BME280;42714;48.260;10.980;2023-08-20T19:16:38;974.7;;;28.1;87.2
51227;BME280;42714;48.260;10.980;2023-08-20T19:21:39;974.7;;;27.9;89.4
51227;BME280;42714;48.260;10.980;2023-08-20T19:26:40;974.8;;;27.7;93.4
51227;BME280;42714;48.260;10.980;2023-08-20T19:31:41;974.7;;;27.5;95.5
51227;BME280;42714;48.260;10.980;2023-08-20T19:36:42;974.8;;;27.4;100.0
51227;BME280;42714;48.260;10.980;2023-08-20T19:41:43;974.8;;;27.1;100.0
51227;BME280;42714;48.260;10.980;2023-08-20T19:46:44;974.8;;;27.0;100.0
51227;BME280;42714;48.260;10.980;2023-08-20T19:51:45;974.9;;;26.9;100.0
51227;BME280;42714;48.260;10.980;2023-08-20T19:56:49;974.9;;;26.7;100.0
51227;BME280;42714;48.260;10.980;2023-08-20T20:01:48;974.9;;;26.5;100.0
51227;BME280;42714;48.260;10.980;2023-08-20T20:06:48;975.0;;;26.3;100.0
51227;BME280;42714;48.260;10.980;2023-08-20T20:11:49;975.0;;;26.2;100.0
51227;BME280;42714;48.260;10.980;2023-08-20T20:16:50;975.0;;;26.1;100.0
51227;BME280;42714;48.260;10.980;2023-08-20T20:21:51;975.0;;;25.9;100.0
51227;BME280;42714;48.260;10.980;2023-08-20T20:26:52;975.1;;;25.9;100.0
51227;BME280;42714;48.260;10.980;2023-08-20T20:31:53;975.1;;;25.8;100.0
51227;BME280;42714;48.260;10.980;2023-08-20T20:36:54;975.1;;;25.7;100.0
51227;BME280;42714;48.260;10.980;2023-08-20T20:41:55;975.2;;;25.7;100.0
51227;BME280;42714;48.260;10.980;2023-08-20T20:46:56;975.2;;;25.6;100.0
51227;BME280;42714;48.260;10.980;2023-08-20T20:51:57;975.2;;;25.6;100.0
51227;BME280;42714;48.260;10.980;2023-08-20T20:56:58;975.2;;;25.4;100.0
51227;BME280;42714;48.260;10.980;2023-08-20T21:01:59;975.3;;;25.3;100.0
51227;BME280;42714;48.260;10.980;2023-08-20T21:07:00;975.3;;;25.1;100.0
51227;BME280;42714;48.260;10.980;2023-08-20T21:12:01;975.2;;;25.0;100.0
51227;BME280;42714;48.260;10.980;2023-08-20T21:17:02;975.2;;;25.0;100.0
51227;BME280;42714;48.260;10.980;2023-08-20T21:27:04;975.2;;;24.8;100.0
51227;BME280;42714;48.260;10.980;2023-08-20T21:32:06;975.2;;;24.7;100.0
51227;BME280;42714;48.260;10.980;2023-08-20T21:37:06;975.2;;;24.7;100.0
51227;BME280;42714;48.260;10.980;2023-08-20T21:42:07;975.2;;;24.6;100.0
51227;BME280;42714;48.260;10.980;2023-08-20T21:52:09;975.2;;;24.5;100.0
51227;BME280;42714;48.260;10.980;2023-08-20T21:57:15;975.2;;;24.5;100.0
51227;BME280;42714;48.260;10.980;2023-08-20T22:02:11;975.2;;;24.4;100.0
51227;BME280;42714;48.260;10.980;2023-08-20T22:07:12;975.2;;;24.2;100.0
51227;BME280;42714;48.260;10.980;2023-08-20T22:12:13;975.2;;;24.1;100.0
51227;BME280;42714;48.260;10.980;2023-08-20T22:17:14;975.2;;;24.0;100.0
51227;BME280;42714;48.260;10.980;2023-08-20T22:22:15;975.2;;;23.9;100.0
51227;BME280;42714;48.260;10.980;2023-08-20T22:27:16;975.3;;;23.8;100.0
51227;BME280;42714;48.260;10.980;2023-08-20T22:32:17;975.3;;;23.8;100.0
51227;BME280;42714;48.260;10.980;2023-08-20T22:37:20;975.3;;;23.6;100.0
51227;BME280;42714;48.260;10.980;2023-08-20T22:42:19;975.3;;;23.4;100.0
51227;BME280;42714;48.260;10.980;2023-08-20T22:47:20;975.3;;;23.3;100.0
51227;BME280;42714;48.260;10.980;2023-08-20T22:52:21;975.3;;;23.3;100.0
51227;BME280;42714;48.260;10.980;2023-08-20T22:57:22;975.3;;;23.3;100.0
51227;BME280;42714;48.260;10.980;2023-08-20T23:02:23;975.3;;;23.5;100.0
51227;BME280;42714;48.260;10.980;2023-08-20T23:07:24;975.3;;;23.5;100.0
51227;BME280;42714;48.260;10.980;2023-08-20T23:12:25;975.3;;;23.6;100.0
51227;BME280;42714;48.260;10.980;2023-08-20T23:17:26;975.3;;;23.7;100.0
51227;BME280;42714;48.260;10.980;2023-08-20T23:22:27;975.2;;;23.7;100.0
51227;BME280;42714;48.260;10.980;2023-08-20T23:27:28;975.2;;;23.7;100.0
51227;BME280;42714;48.260;10.980;2023-08-20T23:32:29;975.2;;;23.6;100.0
51227;BME280;42714;48.260;10.980;2023-08-20T23:37:30;975.2;;;23.7;100.0
51227;BME280;42714;48.260;10.980;2023-08-20T23:42:31;975.2;;;23.6;100.0
51227;BME280;42714;48.260;10.980;2023-08-20T23:47:32;975.2;;;23.4;100.0
51227;BME280;42714;48.260;10.980;2023-08-20T23:52:34;975.2;;;23.2;100.0
51227;BME280;42714;48.260;10.980;2023-08-20T23:57:34;975.3;;;23.3;100.0
